sensor_id;sensor_type;location;lat;lon;timestamp;P1;P2;P0
74333;PMS5003;62753;40.394;-80.022;2024-03-22T00:02:22;6;4;
74333;PMS5003;62753;40.394;-80.022;2024-03-22T00:04:47;5;5;
74333;PMS5003;62753;40.394;-80.022;2024-03-22T00:07:13;6;5;
74333;PMS5003;62753;40.394;-80.022;2024-03-22T00:09:38;13;11;
74333;PMS5003;62753;40.394;-80.022;2024-03-22T00:12:04;7;7;
74333;PMS5003;62753;40.394;-80.022;2024-03-22T00:14:33;6;6;
74333;PMS5003;62753;40.394;-80.022;2024-03-22T00:16:55;10;7;
74333;PMS5003;62753;40.394;-80.022;2024-03-22T00:19:21;5;4;
74333;PMS5003;62753;40.394;-80.022;2024-03-22T00:21:46;6;6;
74333;PMS5003;62753;40.394;-80.022;2024-03-22T00:24:12;6;5;
74333;PMS5003;62753;40.394;-80.022;2024-03-22T00:26:38;7;6;
74333;PMS5003;62753;40.394;-80.022;2024-03-22T00:29:03;4;4;
74333;PMS5003;62753;40.394;-80.022;2024-03-22T00:31:29;4;4;
74333;PMS5003;62753;40.394;-80.022;2024-03-22T00:33:54;6;5;
74333;PMS5003;62753;40.394;-80.022;2024-03-22T00:36:20;5;5;
74333;PMS5003;62753;40.394;-80.022;2024-03-22T00:38:46;5;5;
74333;PMS5003;62753;40.394;-80.022;2024-03-22T00:41:12;4;4;
74333;PMS5003;62753;40.394;-80.022;2024-03-22T00:43:37;6;5;
74333;PMS5003;62753;40.394;-80.022;2024-03-22T00:46:03;7;5;
74333;PMS5003;62753;40.394;-80.022;2024-03-22T00:48:29;4;4;
74333;PMS5003;62753;40.394;-80.022;2024-03-22T00:50:54;4;3;
74333;PMS5003;62753;40.394;-80.022;2024-03-22T00:53:20;4;4;
74333;PMS5003;62753;40.394;-80.022;2024-03-22T00:55:45;5;5;
74333;PMS5003;62753;40.394;-80.022;2024-03-22T00:58:11;6;6;
74333;PMS5003;62753;40.394;-80.022;2024-03-22T01:00:37;5;5;
74333;PMS5003;62753;40.394;-80.022;2024-03-22T01:03:03;5;5;
74333;PMS5003;62753;40.394;-80.022;2024-03-22T01:05:28;6;4;
74333;PMS5003;62753;40.394;-80.022;2024-03-22T01:07:54;7;5;
74333;PMS5003;62753;40.394;-80.022;2024-03-22T01:10:19;6;6;
74333;PMS5003;62753;40.394;-80.022;2024-03-22T01:12:45;6;6;
74333;PMS5003;62753;40.394;-80.022;2024-03-22T01:15:12;9;7;
74333;PMS5003;62753;40.394;-80.022;2024-03-22T01:17:37;5;5;
74333;PMS5003;62753;40.394;-80.022;2024-03-22T01:20:02;5;5;
74333;PMS5003;62753;40.394;-80.022;2024-03-22T01:22:28;6;5;
74333;PMS5003;62753;40.394;-80.022;2024-03-22T01:24:54;5;5;
74333;PMS5003;62753;40.394;-80.022;2024-03-22T01:27:19;6;6;
74333;PMS5003;62753;40.394;-80.022;2024-03-22T01:29:45;8;6;
74333;PMS5003;62753;40.394;-80.022;2024-03-22T01:32:10;6;6;
74333;PMS5003;62753;40.394;-80.022;2024-03-22T01:34:36;6;6;
74333;PMS5003;62753;40.394;-80.022;2024-03-22T01:37:02;5;5;
74333;PMS5003;62753;40.394;-80.022;2024-03-22T01:39:28;6;5;
74333;PMS5003;62753;40.394;-80.022;2024-03-22T01:41:53;4;4;
74333;PMS5003;62753;40.394;-80.022;2024-03-22T01:44:19;5;4;
74333;PMS5003;62753;40.394;-80.022;2024-03-22T01:46:45;4;4;
74333;PMS5003;62753;40.394;-80.022;2024-03-22T01:49:11;8;6;
74333;PMS5003;62753;40.394;-80.022;2024-03-22T01:51:36;9;5;
74333;PMS5003;62753;40.394;-80.022;2024-03-22T01:54:02;5;5;
74333;PMS5003;62753;40.394;-80.022;2024-03-22T01:56:27;5;5;
74333;PMS5003;62753;40.394;-80.022;2024-03-22T01:58:53;9;6;
74333;PMS5003;62753;40.394;-80.022;2024-03-22T02:01:19;8;6;
74333;PMS5003;62753;40.394;-80.022;2024-03-22T02:03:44;9;6;
74333;PMS5003;62753;40.394;-80.022;2024-03-22T02:06:09;5;5;
74333;PMS5003;62753;40.394;-80.022;2024-03-22T02:08:35;11;5;
74333;PMS5003;62753;40.394;-80.022;2024-03-22T02:11:00;6;6;
74333;PMS5003;62753;40.394;-80.022;2024-03-22T02:13:26;6;5;
74333;PMS5003;62753;40.394;-80.022;2024-03-22T02:15:53;6;6;
74333;PMS5003;62753;40.394;-80.022;2024-03-22T02:18:17;8;6;
74333;PMS5003;62753;40.394;-80.022;2024-03-22T02:20:43;4;3;
74333;PMS5003;62753;40.394;-80.022;2024-03-22T02:23:09;5;5;
74333;PMS5003;62753;40.394;-80.022;2024-03-22T02:25:35;4;3;
74333;PMS5003;62753;40.394;-80.022;2024-03-22T02:28:00;8;6;
74333;PMS5003;62753;40.394;-80.022;2024-03-22T02:30:26;5;5;
74333;PMS5003;62753;40.394;-80.022;2024-03-22T02:32:52;8;5;
74333;PMS5003;62753;40.394;-80.022;2024-03-22T02:35:18;6;4;
74333;PMS5003;62753;40.394;-80.022;2024-03-22T02:37:43;5;5;
74333;PMS5003;62753;40.394;-80.022;2024-03-22T02:40:09;6;5;
74333;PMS5003;62753;40.394;-80.022;2024-03-22T02:42:34;6;6;
74333;PMS5003;62753;40.394;-80.022;2024-03-22T02:45:00;5;4;
74333;PMS5003;62753;40.394;-80.022;2024-03-22T02:47:26;10;6;
74333;PMS5003;62753;40.394;-80.022;2024-03-22T02:49:52;6;5;
74333;PMS5003;62753;40.394;-80.022;2024-03-22T02:52:17;7;5;
74333;PMS5003;62753;40.394;-80.022;2024-03-22T02:54:43;7;7;
74333;PMS5003;62753;40.394;-80.022;2024-03-22T02:57:09;4;3;
74333;PMS5003;62753;40.394;-80.022;2024-03-22T02:59:34;4;4;
74333;PMS5003;62753;40.394;-80.022;2024-03-22T03:02:00;7;5;
74333;PMS5003;62753;40.394;-80.022;2024-03-22T03:04:26;7;5;
74333;PMS5003;62753;40.394;-80.022;2024-03-22T03:06:52;4;4;
74333;PMS5003;62753;40.394;-80.022;2024-03-22T03:09:18;5;4;
74333;PMS5003;62753;40.394;-80.022;2024-03-22T03:11:43;4;4;
74333;PMS5003;62753;40.394;-80.022;2024-03-22T03:14:09;9;8;
74333;PMS5003;62753;40.394;-80.022;2024-03-22T03:16:35;4;4;
74333;PMS5003;62753;40.394;-80.022;2024-03-22T03:19:00;4;4;
74333;PMS5003;62753;40.394;-80.022;2024-03-22T03:21:26;4;4;
74333;PMS5003;62753;40.394;-80.022;2024-03-22T03:23:52;4;4;
74333;PMS5003;62753;40.394;-80.022;2024-03-22T03:26:17;5;5;
74333;PMS5003;62753;40.394;-80.022;2024-03-22T03:28:43;5;4;
74333;PMS5003;62753;40.394;-80.022;2024-03-22T03:31:09;4;4;
74333;PMS5003;62753;40.394;-80.022;2024-03-22T03:33:35;3;3;
74333;PMS5003;62753;40.394;-80.022;2024-03-22T03:36:00;5;5;
74333;PMS5003;62753;40.394;-80.022;2024-03-22T03:38:26;4;3;
74333;PMS5003;62753;40.394;-80.022;2024-03-22T03:40:52;4;3;
74333;PMS5003;62753;40.394;-80.022;2024-03-22T03:43:17;4;4;
74333;PMS5003;62753;40.394;-80.022;2024-03-22T03:45:44;3;3;
74333;PMS5003;62753;40.394;-80.022;2024-03-22T03:48:09;4;2;
74333;PMS5003;62753;40.394;-80.022;2024-03-22T03:50:35;5;5;
74333;PMS5003;62753;40.394;-80.022;2024-03-22T03:53:01;4;3;
74333;PMS5003;62753;40.394;-80.022;2024-03-22T03:55:27;5;4;
74333;PMS5003;62753;40.394;-80.022;2024-03-22T03:57:52;3;3;
74333;PMS5003;62753;40.394;-80.022;2024-03-22T04:00:19;7;4;
74333;PMS5003;62753;40.394;-80.022;2024-03-22T04:02:44;4;3;
74333;PMS5003;62753;40.394;-80.022;2024-03-22T04:05:09;4;3;
74333;PMS5003;62753;40.394;-80.022;2024-03-22T04:07:35;3;3;
74333;PMS5003;62753;40.394;-80.022;2024-03-22T04:10:01;4;3;
74333;PMS5003;62753;40.394;-80.022;2024-03-22T04:12:32;2;2;
74333;PMS5003;62753;40.394;-80.022;2024-03-22T04:14:53;4;4;
74333;PMS5003;62753;40.394;-80.022;2024-03-22T04:17:18;4;3;
74333;PMS5003;62753;40.394;-80.022;2024-03-22T04:19:44;4;3;
74333;PMS5003;62753;40.394;-80.022;2024-03-22T04:22:10;4;3;
74333;PMS5003;62753;40.394;-80.022;2024-03-22T04:24:35;3;3;
74333;PMS5003;62753;40.394;-80.022;2024-03-22T04:27:01;2;2;
74333;PMS5003;62753;40.394;-80.022;2024-03-22T04:29:27;3;3;
74333;PMS5003;62753;40.394;-80.022;2024-03-22T04:31:53;5;3;
74333;PMS5003;62753;40.394;-80.022;2024-03-22T04:34:18;3;2;
74333;PMS5003;62753;40.394;-80.022;2024-03-22T04:36:44;2;2;
74333;PMS5003;62753;40.394;-80.022;2024-03-22T04:39:10;3;3;
74333;PMS5003;62753;40.394;-80.022;2024-03-22T04:41:35;3;3;
74333;PMS5003;62753;40.394;-80.022;2024-03-22T04:44:01;8;4;
74333;PMS5003;62753;40.394;-80.022;2024-03-22T04:46:27;6;4;
74333;PMS5003;62753;40.394;-80.022;2024-03-22T04:48:53;3;3;
74333;PMS5003;62753;40.394;-80.022;2024-03-22T04:51:19;4;4;
74333;PMS5003;62753;40.394;-80.022;2024-03-22T04:53:44;4;4;
74333;PMS5003;62753;40.394;-80.022;2024-03-22T04:56:11;4;2;
74333;PMS5003;62753;40.394;-80.022;2024-03-22T04:58:36;3;3;
74333;PMS5003;62753;40.394;-80.022;2024-03-22T05:01:01;2;2;
74333;PMS5003;62753;40.394;-80.022;2024-03-22T05:03:27;2;2;
74333;PMS5003;62753;40.394;-80.022;2024-03-22T05:05:53;4;4;
74333;PMS5003;62753;40.394;-80.022;2024-03-22T05:08:19;3;3;
74333;PMS5003;62753;40.394;-80.022;2024-03-22T05:10:44;2;1;
74333;PMS5003;62753;40.394;-80.022;2024-03-22T05:13:10;2;2;
74333;PMS5003;62753;40.394;-80.022;2024-03-22T05:15:36;4;2;
74333;PMS5003;62753;40.394;-80.022;2024-03-22T05:18:02;7;6;
74333;PMS5003;62753;40.394;-80.022;2024-03-22T05:20:28;4;3;
74333;PMS5003;62753;40.394;-80.022;2024-03-22T05:22:54;2;2;
74333;PMS5003;62753;40.394;-80.022;2024-03-22T05:25:20;4;4;
74333;PMS5003;62753;40.394;-80.022;2024-03-22T05:27:45;2;2;
74333;PMS5003;62753;40.394;-80.022;2024-03-22T05:30:11;3;3;
74333;PMS5003;62753;40.394;-80.022;2024-03-22T05:32:36;2;2;
74333;PMS5003;62753;40.394;-80.022;2024-03-22T05:35:03;3;2;
74333;PMS5003;62753;40.394;-80.022;2024-03-22T05:37:28;2;2;
74333;PMS5003;62753;40.394;-80.022;2024-03-22T05:39:54;2;2;
74333;PMS5003;62753;40.394;-80.022;2024-03-22T05:42:19;3;2;
74333;PMS5003;62753;40.394;-80.022;2024-03-22T05:44:45;2;2;
74333;PMS5003;62753;40.394;-80.022;2024-03-22T05:47:11;3;3;
74333;PMS5003;62753;40.394;-80.022;2024-03-22T05:49:37;2;2;
74333;PMS5003;62753;40.394;-80.022;2024-03-22T05:52:03;2;1;
74333;PMS5003;62753;40.394;-80.022;2024-03-22T05:54:28;2;2;
74333;PMS5003;62753;40.394;-80.022;2024-03-22T05:56:55;2;2;
74333;PMS5003;62753;40.394;-80.022;2024-03-22T05:59:20;4;2;
74333;PMS5003;62753;40.394;-80.022;2024-03-22T06:01:46;2;2;
74333;PMS5003;62753;40.394;-80.022;2024-03-22T06:04:11;2;1;
74333;PMS5003;62753;40.394;-80.022;2024-03-22T06:06:37;2;2;
74333;PMS5003;62753;40.394;-80.022;2024-03-22T06:09:03;2;2;
74333;PMS5003;62753;40.394;-80.022;2024-03-22T06:11:30;2;2;
74333;PMS5003;62753;40.394;-80.022;2024-03-22T06:13:54;3;2;
74333;PMS5003;62753;40.394;-80.022;2024-03-22T06:16:20;3;3;
74333;PMS5003;62753;40.394;-80.022;2024-03-22T06:18:46;4;2;
74333;PMS5003;62753;40.394;-80.022;2024-03-22T06:21:12;4;3;
74333;PMS5003;62753;40.394;-80.022;2024-03-22T06:23:38;2;1;
74333;PMS5003;62753;40.394;-80.022;2024-03-22T06:26:04;1;1;
74333;PMS5003;62753;40.394;-80.022;2024-03-22T06:28:29;3;2;
74333;PMS5003;62753;40.394;-80.022;2024-03-22T06:30:55;4;3;
74333;PMS5003;62753;40.394;-80.022;2024-03-22T06:33:21;2;1;
74333;PMS5003;62753;40.394;-80.022;2024-03-22T06:35:46;2;1;
74333;PMS5003;62753;40.394;-80.022;2024-03-22T06:38:13;2;2;
74333;PMS5003;62753;40.394;-80.022;2024-03-22T06:40:38;3;3;
74333;PMS5003;62753;40.394;-80.022;2024-03-22T06:43:03;1;1;
74333;PMS5003;62753;40.394;-80.022;2024-03-22T06:45:29;1;1;
74333;PMS5003;62753;40.394;-80.022;2024-03-22T06:47:55;1;1;
74333;PMS5003;62753;40.394;-80.022;2024-03-22T06:50:21;1;1;
74333;PMS5003;62753;40.394;-80.022;2024-03-22T06:52:47;3;2;
74333;PMS5003;62753;40.394;-80.022;2024-03-22T06:55:12;2;2;
74333;PMS5003;62753;40.394;-80.022;2024-03-22T06:57:38;4;3;
74333;PMS5003;62753;40.394;-80.022;2024-03-22T07:00:04;3;1;
74333;PMS5003;62753;40.394;-80.022;2024-03-22T07:02:30;1;1;
74333;PMS5003;62753;40.394;-80.022;2024-03-22T07:04:56;3;2;
74333;PMS5003;62753;40.394;-80.022;2024-03-22T07:07:21;2;2;
74333;PMS5003;62753;40.394;-80.022;2024-03-22T07:09:48;2;2;
74333;PMS5003;62753;40.394;-80.022;2024-03-22T07:12:13;2;2;
74333;PMS5003;62753;40.394;-80.022;2024-03-22T07:14:39;2;1;
74333;PMS5003;62753;40.394;-80.022;2024-03-22T07:17:05;1;1;
74333;PMS5003;62753;40.394;-80.022;2024-03-22T07:19:31;1;1;
74333;PMS5003;62753;40.394;-80.022;2024-03-22T07:21:56;1;1;
74333;PMS5003;62753;40.394;-80.022;2024-03-22T07:24:22;2;2;
74333;PMS5003;62753;40.394;-80.022;2024-03-22T07:26:48;2;2;
74333;PMS5003;62753;40.394;-80.022;2024-03-22T07:29:14;1;1;
74333;PMS5003;62753;40.394;-80.022;2024-03-22T07:31:39;3;3;
74333;PMS5003;62753;40.394;-80.022;2024-03-22T07:34:05;1;1;
74333;PMS5003;62753;40.394;-80.022;2024-03-22T07:36:31;2;2;
74333;PMS5003;62753;40.394;-80.022;2024-03-22T07:38:56;1;1;
74333;PMS5003;62753;40.394;-80.022;2024-03-22T07:41:22;2;2;
74333;PMS5003;62753;40.394;-80.022;2024-03-22T07:43:48;2;2;
74333;PMS5003;62753;40.394;-80.022;2024-03-22T07:46:14;1;1;
74333;PMS5003;62753;40.394;-80.022;2024-03-22T07:48:40;1;1;
74333;PMS5003;62753;40.394;-80.022;2024-03-22T07:51:06;2;1;
74333;PMS5003;62753;40.394;-80.022;2024-03-22T07:53:32;2;2;
74333;PMS5003;62753;40.394;-80.022;2024-03-22T07:55:57;4;2;
74333;PMS5003;62753;40.394;-80.022;2024-03-22T07:58:23;2;2;
74333;PMS5003;62753;40.394;-80.022;2024-03-22T08:00:49;2;2;
74333;PMS5003;62753;40.394;-80.022;2024-03-22T08:03:15;1;1;
74333;PMS5003;62753;40.394;-80.022;2024-03-22T08:05:41;2;2;
74333;PMS5003;62753;40.394;-80.022;2024-03-22T08:08:06;2;2;
74333;PMS5003;62753;40.394;-80.022;2024-03-22T08:10:32;1;1;
74333;PMS5003;62753;40.394;-80.022;2024-03-22T08:12:58;2;1;
74333;PMS5003;62753;40.394;-80.022;2024-03-22T08:15:24;4;2;
74333;PMS5003;62753;40.394;-80.022;2024-03-22T08:17:49;1;1;
74333;PMS5003;62753;40.394;-80.022;2024-03-22T08:20:15;3;1;
74333;PMS5003;62753;40.394;-80.022;2024-03-22T08:22:41;2;2;
74333;PMS5003;62753;40.394;-80.022;2024-03-22T08:25:07;3;1;
74333;PMS5003;62753;40.394;-80.022;2024-03-22T08:27:32;1;1;
74333;PMS5003;62753;40.394;-80.022;2024-03-22T08:29:58;5;3;
74333;PMS5003;62753;40.394;-80.022;2024-03-22T08:32:24;1;1;
74333;PMS5003;62753;40.394;-80.022;2024-03-22T08:34:50;2;1;
74333;PMS5003;62753;40.394;-80.022;2024-03-22T08:37:16;2;2;
74333;PMS5003;62753;40.394;-80.022;2024-03-22T08:39:41;2;1;
74333;PMS5003;62753;40.394;-80.022;2024-03-22T08:42:07;3;2;
74333;PMS5003;62753;40.394;-80.022;2024-03-22T08:44:33;2;2;
74333;PMS5003;62753;40.394;-80.022;2024-03-22T08:46:59;2;2;
74333;PMS5003;62753;40.394;-80.022;2024-03-22T08:49:25;2;2;
74333;PMS5003;62753;40.394;-80.022;2024-03-22T08:51:50;1;0;
74333;PMS5003;62753;40.394;-80.022;2024-03-22T08:54:16;3;3;
74333;PMS5003;62753;40.394;-80.022;2024-03-22T08:56:42;2;2;
74333;PMS5003;62753;40.394;-80.022;2024-03-22T08:59:08;1;1;
74333;PMS5003;62753;40.394;-80.022;2024-03-22T09:01:34;1;1;
74333;PMS5003;62753;40.394;-80.022;2024-03-22T09:03:59;2;1;
74333;PMS5003;62753;40.394;-80.022;2024-03-22T09:06:25;1;1;
74333;PMS5003;62753;40.394;-80.022;2024-03-22T09:08:51;0;0;
74333;PMS5003;62753;40.394;-80.022;2024-03-22T09:11:17;1;1;
74333;PMS5003;62753;40.394;-80.022;2024-03-22T09:13:43;3;2;
74333;PMS5003;62753;40.394;-80.022;2024-03-22T09:16:09;2;2;
74333;PMS5003;62753;40.394;-80.022;2024-03-22T09:18:34;2;2;
74333;PMS5003;62753;40.394;-80.022;2024-03-22T09:21:00;3;2;
74333;PMS5003;62753;40.394;-80.022;2024-03-22T09:23:26;2;2;
74333;PMS5003;62753;40.394;-80.022;2024-03-22T09:25:52;2;2;
74333;PMS5003;62753;40.394;-80.022;2024-03-22T09:28:18;2;1;
74333;PMS5003;62753;40.394;-80.022;2024-03-22T09:30:44;2;2;
74333;PMS5003;62753;40.394;-80.022;2024-03-22T09:33:09;2;2;
74333;PMS5003;62753;40.394;-80.022;2024-03-22T09:35:35;3;2;
74333;PMS5003;62753;40.394;-80.022;2024-03-22T09:38:01;2;2;
74333;PMS5003;62753;40.394;-80.022;2024-03-22T09:40:27;3;2;
74333;PMS5003;62753;40.394;-80.022;2024-03-22T09:42:53;1;1;
74333;PMS5003;62753;40.394;-80.022;2024-03-22T09:45:18;2;2;
74333;PMS5003;62753;40.394;-80.022;2024-03-22T09:47:44;3;2;
74333;PMS5003;62753;40.394;-80.022;2024-03-22T09:50:10;3;2;
74333;PMS5003;62753;40.394;-80.022;2024-03-22T09:52:36;1;1;
74333;PMS5003;62753;40.394;-80.022;2024-03-22T09:55:02;1;1;
74333;PMS5003;62753;40.394;-80.022;2024-03-22T09:57:27;5;2;
74333;PMS5003;62753;40.394;-80.022;2024-03-22T09:59:53;2;2;
74333;PMS5003;62753;40.394;-80.022;2024-03-22T10:02:19;3;2;
74333;PMS5003;62753;40.394;-80.022;2024-03-22T10:04:45;3;2;
74333;PMS5003;62753;40.394;-80.022;2024-03-22T10:07:11;2;1;
74333;PMS5003;62753;40.394;-80.022;2024-03-22T10:09:37;3;2;
74333;PMS5003;62753;40.394;-80.022;2024-03-22T10:12:07;3;3;
74333;PMS5003;62753;40.394;-80.022;2024-03-22T10:14:29;2;2;
74333;PMS5003;62753;40.394;-80.022;2024-03-22T10:16:54;3;2;
74333;PMS5003;62753;40.394;-80.022;2024-03-22T10:19:20;1;1;
74333;PMS5003;62753;40.394;-80.022;2024-03-22T10:21:46;2;2;
74333;PMS5003;62753;40.394;-80.022;2024-03-22T10:24:11;2;2;
74333;PMS5003;62753;40.394;-80.022;2024-03-22T10:26:37;8;6;
74333;PMS5003;62753;40.394;-80.022;2024-03-22T10:29:05;6;3;
74333;PMS5003;62753;40.394;-80.022;2024-03-22T10:31:28;6;3;
74333;PMS5003;62753;40.394;-80.022;2024-03-22T10:33:54;3;2;
74333;PMS5003;62753;40.394;-80.022;2024-03-22T10:36:20;5;2;
74333;PMS5003;62753;40.394;-80.022;2024-03-22T10:38:46;1;1;
74333;PMS5003;62753;40.394;-80.022;2024-03-22T10:41:12;6;3;
74333;PMS5003;62753;40.394;-80.022;2024-03-22T10:43:38;2;2;
74333;PMS5003;62753;40.394;-80.022;2024-03-22T10:46:03;1;1;
74333;PMS5003;62753;40.394;-80.022;2024-03-22T10:48:30;3;3;
74333;PMS5003;62753;40.394;-80.022;2024-03-22T10:50:55;2;2;
74333;PMS5003;62753;40.394;-80.022;2024-03-22T10:53:22;3;2;
74333;PMS5003;62753;40.394;-80.022;2024-03-22T10:55:47;5;3;
74333;PMS5003;62753;40.394;-80.022;2024-03-22T10:58:14;5;2;
74333;PMS5003;62753;40.394;-80.022;2024-03-22T11:00:38;6;5;
74333;PMS5003;62753;40.394;-80.022;2024-03-22T11:03:04;3;3;
74333;PMS5003;62753;40.394;-80.022;2024-03-22T11:05:30;3;3;
74333;PMS5003;62753;40.394;-80.022;2024-03-22T11:07:58;7;3;
74333;PMS5003;62753;40.394;-80.022;2024-03-22T11:10:25;1;1;
74333;PMS5003;62753;40.394;-80.022;2024-03-22T11:12:47;3;1;
74333;PMS5003;62753;40.394;-80.022;2024-03-22T11:15:13;3;2;
74333;PMS5003;62753;40.394;-80.022;2024-03-22T11:17:39;3;3;
74333;PMS5003;62753;40.394;-80.022;2024-03-22T11:20:05;2;2;
74333;PMS5003;62753;40.394;-80.022;2024-03-22T11:22:30;10;3;
74333;PMS5003;62753;40.394;-80.022;2024-03-22T11:24:56;5;3;
74333;PMS5003;62753;40.394;-80.022;2024-03-22T11:27:22;7;5;
74333;PMS5003;62753;40.394;-80.022;2024-03-22T11:29:47;3;2;
74333;PMS5003;62753;40.394;-80.022;2024-03-22T11:32:14;5;3;
74333;PMS5003;62753;40.394;-80.022;2024-03-22T11:34:39;5;2;
74333;PMS5003;62753;40.394;-80.022;2024-03-22T11:37:05;3;2;
74333;PMS5003;62753;40.394;-80.022;2024-03-22T11:39:31;1;1;
74333;PMS5003;62753;40.394;-80.022;2024-03-22T11:41:57;5;3;
74333;PMS5003;62753;40.394;-80.022;2024-03-22T11:44:23;3;3;
74333;PMS5003;62753;40.394;-80.022;2024-03-22T11:46:48;5;3;
74333;PMS5003;62753;40.394;-80.022;2024-03-22T11:49:14;5;3;
74333;PMS5003;62753;40.394;-80.022;2024-03-22T11:51:40;5;3;
74333;PMS5003;62753;40.394;-80.022;2024-03-22T11:54:06;3;3;
74333;PMS5003;62753;40.394;-80.022;2024-03-22T11:56:31;5;5;
74333;PMS5003;62753;40.394;-80.022;2024-03-22T11:58:58;5;3;
74333;PMS5003;62753;40.394;-80.022;2024-03-22T12:01:23;6;6;
74333;PMS5003;62753;40.394;-80.022;2024-03-22T12:03:49;4;4;
74333;PMS5003;62753;40.394;-80.022;2024-03-22T12:06:15;4;3;
74333;PMS5003;62753;40.394;-80.022;2024-03-22T12:08:41;3;3;
74333;PMS5003;62753;40.394;-80.022;2024-03-22T12:11:07;2;2;
74333;PMS5003;62753;40.394;-80.022;2024-03-22T12:13:32;8;8;
74333;PMS5003;62753;40.394;-80.022;2024-03-22T12:15:58;7;4;
74333;PMS5003;62753;40.394;-80.022;2024-03-22T12:18:24;4;4;
74333;PMS5003;62753;40.394;-80.022;2024-03-22T12:20:50;6;4;
74333;PMS5003;62753;40.394;-80.022;2024-03-22T12:23:15;7;6;
74333;PMS5003;62753;40.394;-80.022;2024-03-22T12:25:41;4;3;
74333;PMS5003;62753;40.394;-80.022;2024-03-22T12:28:07;4;4;
74333;PMS5003;62753;40.394;-80.022;2024-03-22T12:30:33;4;4;
74333;PMS5003;62753;40.394;-80.022;2024-03-22T12:32:59;6;6;
74333;PMS5003;62753;40.394;-80.022;2024-03-22T12:35:24;4;3;
74333;PMS5003;62753;40.394;-80.022;2024-03-22T12:37:50;3;3;
74333;PMS5003;62753;40.394;-80.022;2024-03-22T12:40:15;7;6;
74333;PMS5003;62753;40.394;-80.022;2024-03-22T12:42:42;3;2;
74333;PMS5003;62753;40.394;-80.022;2024-03-22T12:45:07;7;3;
74333;PMS5003;62753;40.394;-80.022;2024-03-22T12:47:33;8;6;
74333;PMS5003;62753;40.394;-80.022;2024-03-22T12:49:58;6;4;
74333;PMS5003;62753;40.394;-80.022;2024-03-22T12:52:24;7;3;
74333;PMS5003;62753;40.394;-80.022;2024-03-22T12:54:50;6;6;
74333;PMS5003;62753;40.394;-80.022;2024-03-22T12:57:15;6;4;
74333;PMS5003;62753;40.394;-80.022;2024-03-22T12:59:41;4;3;
74333;PMS5003;62753;40.394;-80.022;2024-03-22T13:02:07;4;4;
74333;PMS5003;62753;40.394;-80.022;2024-03-22T13:04:33;4;4;
74333;PMS5003;62753;40.394;-80.022;2024-03-22T13:06:58;4;4;
74333;PMS5003;62753;40.394;-80.022;2024-03-22T13:09:24;5;4;
74333;PMS5003;62753;40.394;-80.022;2024-03-22T13:11:50;7;5;
74333;PMS5003;62753;40.394;-80.022;2024-03-22T13:14:16;7;7;
74333;PMS5003;62753;40.394;-80.022;2024-03-22T13:16:42;7;5;
74333;PMS5003;62753;40.394;-80.022;2024-03-22T13:19:07;7;5;
74333;PMS5003;62753;40.394;-80.022;2024-03-22T13:21:33;4;4;
74333;PMS5003;62753;40.394;-80.022;2024-03-22T13:23:58;7;5;
74333;PMS5003;62753;40.394;-80.022;2024-03-22T13:26:24;5;5;
74333;PMS5003;62753;40.394;-80.022;2024-03-22T13:28:50;8;5;
74333;PMS5003;62753;40.394;-80.022;2024-03-22T13:31:16;6;5;
74333;PMS5003;62753;40.394;-80.022;2024-03-22T13:33:41;5;5;
74333;PMS5003;62753;40.394;-80.022;2024-03-22T13:36:07;5;5;
74333;PMS5003;62753;40.394;-80.022;2024-03-22T13:38:33;5;4;
74333;PMS5003;62753;40.394;-80.022;2024-03-22T13:40:59;5;5;
74333;PMS5003;62753;40.394;-80.022;2024-03-22T13:43:25;7;7;
74333;PMS5003;62753;40.394;-80.022;2024-03-22T13:45:50;7;7;
74333;PMS5003;62753;40.394;-80.022;2024-03-22T13:48:15;5;5;
74333;PMS5003;62753;40.394;-80.022;2024-03-22T13:50:40;9;6;
74333;PMS5003;62753;40.394;-80.022;2024-03-22T13:53:06;6;5;
74333;PMS5003;62753;40.394;-80.022;2024-03-22T13:55:32;8;6;
74333;PMS5003;62753;40.394;-80.022;2024-03-22T13:57:57;5;4;
74333;PMS5003;62753;40.394;-80.022;2024-03-22T14:00:23;7;5;
74333;PMS5003;62753;40.394;-80.022;2024-03-22T14:02:48;7;7;
74333;PMS5003;62753;40.394;-80.022;2024-03-22T14:05:14;6;5;
74333;PMS5003;62753;40.394;-80.022;2024-03-22T14:07:39;7;6;
74333;PMS5003;62753;40.394;-80.022;2024-03-22T14:10:05;12;7;
74333;PMS5003;62753;40.394;-80.022;2024-03-22T14:12:30;13;12;
74333;PMS5003;62753;40.394;-80.022;2024-03-22T14:14:55;8;7;
74333;PMS5003;62753;40.394;-80.022;2024-03-22T14:17:21;7;7;
74333;PMS5003;62753;40.394;-80.022;2024-03-22T14:19:47;10;8;
74333;PMS5003;62753;40.394;-80.022;2024-03-22T14:22:12;12;10;
74333;PMS5003;62753;40.394;-80.022;2024-03-22T14:24:38;12;10;
74333;PMS5003;62753;40.394;-80.022;2024-03-22T14:27:03;12;10;
74333;PMS5003;62753;40.394;-80.022;2024-03-22T14:29:28;13;12;
74333;PMS5003;62753;40.394;-80.022;2024-03-22T14:31:54;17;14;
74333;PMS5003;62753;40.394;-80.022;2024-03-22T14:34:19;9;9;
74333;PMS5003;62753;40.394;-80.022;2024-03-22T14:36:46;14;13;
74333;PMS5003;62753;40.394;-80.022;2024-03-22T14:39:11;14;12;
74333;PMS5003;62753;40.394;-80.022;2024-03-22T14:41:36;14;13;
74333;PMS5003;62753;40.394;-80.022;2024-03-22T14:44:01;23;16;
74333;PMS5003;62753;40.394;-80.022;2024-03-22T14:46:26;14;12;
74333;PMS5003;62753;40.394;-80.022;2024-03-22T14:48:53;16;14;
74333;PMS5003;62753;40.394;-80.022;2024-03-22T14:51:17;16;13;
74333;PMS5003;62753;40.394;-80.022;2024-03-22T14:53:43;13;11;
74333;PMS5003;62753;40.394;-80.022;2024-03-22T14:56:08;16;14;
74333;PMS5003;62753;40.394;-80.022;2024-03-22T14:58:34;20;18;
74333;PMS5003;62753;40.394;-80.022;2024-03-22T15:01:00;17;16;
74333;PMS5003;62753;40.394;-80.022;2024-03-22T15:03:25;17;13;
74333;PMS5003;62753;40.394;-80.022;2024-03-22T15:05:52;24;17;
74333;PMS5003;62753;40.394;-80.022;2024-03-22T15:08:17;19;16;
74333;PMS5003;62753;40.394;-80.022;2024-03-22T15:10:42;22;17;
74333;PMS5003;62753;40.394;-80.022;2024-03-22T15:13:07;20;18;
74333;PMS5003;62753;40.394;-80.022;2024-03-22T15:15:33;21;19;
74333;PMS5003;62753;40.394;-80.022;2024-03-22T15:17:59;23;19;
74333;PMS5003;62753;40.394;-80.022;2024-03-22T15:20:24;20;18;
74333;PMS5003;62753;40.394;-80.022;2024-03-22T15:22:50;21;20;
74333;PMS5003;62753;40.394;-80.022;2024-03-22T15:25:15;24;20;
74333;PMS5003;62753;40.394;-80.022;2024-03-22T15:27:41;23;19;
74333;PMS5003;62753;40.394;-80.022;2024-03-22T15:30:06;27;22;
74333;PMS5003;62753;40.394;-80.022;2024-03-22T15:32:32;28;24;
74333;PMS5003;62753;40.394;-80.022;2024-03-22T15:34:57;24;21;
74333;PMS5003;62753;40.394;-80.022;2024-03-22T15:37:22;26;23;
74333;PMS5003;62753;40.394;-80.022;2024-03-22T15:39:48;27;20;
74333;PMS5003;62753;40.394;-80.022;2024-03-22T15:42:13;22;19;
74333;PMS5003;62753;40.394;-80.022;2024-03-22T15:44:38;31;23;
74333;PMS5003;62753;40.394;-80.022;2024-03-22T15:47:04;27;19;
74333;PMS5003;62753;40.394;-80.022;2024-03-22T15:49:29;19;18;
74333;PMS5003;62753;40.394;-80.022;2024-03-22T15:51:55;28;23;
74333;PMS5003;62753;40.394;-80.022;2024-03-22T15:54:21;23;19;
74333;PMS5003;62753;40.394;-80.022;2024-03-22T15:56:45;23;21;
74333;PMS5003;62753;40.394;-80.022;2024-03-22T15:59:11;23;23;
74333;PMS5003;62753;40.394;-80.022;2024-03-22T16:01:36;29;24;
74333;PMS5003;62753;40.394;-80.022;2024-03-22T16:04:01;26;24;